Time;durP1;ratioP1;P1;durP2;ratioP2;P2;SDS_P1;SDS_P2;PMS_P1;PMS_P2;Temp;Humidity;BMP_temperature;BMP_pressure;BME280_temperature;BME280_humidity;BME280_pressure;Samples;Min_cycle;Max_cycle;Signal;HPM_P1;HPM_P2
2024/03/13 00:01:43;;;;;;;3.50;1.80;;;;;;;18.58;46.44;101164.91;4966860;28;20031;-72
2024/03/13 00:04:09;;;;;;;4.25;1.80;;;;;;;18.66;46.45;101175.69;4967451;28;20357;-74
2024/03/13 00:06:34;;;;;;;3.72;1.90;;;;;;;18.62;46.63;101170.78;4967655;28;20074;-73
2024/03/13 00:09:00;;;;;;;3.58;2.03;;;;;;;18.58;46.46;101164.91;4967509;28;20061;-74
2024/03/13 00:11:27;;;;;;;3.30;1.75;;;;;;;18.65;46.48;101181.94;4967633;28;20035;-74
2024/03/13 00:13:55;;;;;;;3.38;1.75;;;;;;;18.57;46.47;101163.22;4966996;28;20118;-73
2024/03/13 00:16:21;;;;;;;3.03;1.60;;;;;;;18.58;46.41;101169.31;4967282;28;20026;-73
2024/03/13 00:18:46;;;;;;;2.88;1.60;;;;;;;18.56;46.68;101177.34;4966681;28;20499;-74
2024/03/13 00:21:12;;;;;;;3.97;1.98;;;;;;;18.64;46.54;101188.19;4967150;28;20042;-75
2024/03/13 00:23:38;;;;;;;4.22;1.80;;;;;;;18.52;46.53;101170.66;4967701;28;20045;-72
2024/03/13 00:26:03;;;;;;;3.53;1.90;;;;;;;18.53;46.46;101176.75;4967754;28;20074;-71
2024/03/13 00:28:28;;;;;;;4.18;2.08;;;;;;;18.56;46.49;101179.16;4967792;28;20023;-72
2024/03/13 00:30:54;;;;;;;3.92;2.20;;;;;;;18.50;46.73;101169.94;4967721;28;20031;-73
2024/03/13 00:33:19;;;;;;;3.70;2.15;;;;;;;18.56;46.58;101179.16;4967611;28;20089;-72
2024/03/13 00:35:45;;;;;;;3.50;1.90;;;;;;;18.54;46.59;101181.09;4967766;28;20081;-72
2024/03/13 00:38:11;;;;;;;3.75;2.10;;;;;;;18.55;46.59;101193.31;4967517;28;20033;-73
2024/03/13 00:40:37;;;;;;;3.78;2.08;;;;;;;18.56;46.56;101195.00;4967170;28;20034;-73
2024/03/13 00:43:02;;;;;;;3.72;2.22;;;;;;;18.43;46.54;101181.91;4967051;28;20027;-75
2024/03/13 00:45:28;;;;;;;4.10;2.10;;;;;;;18.39;46.64;101176.03;4967296;28;20031;-73
2024/03/13 00:47:54;;;;;;;3.97;2.05;;;;;;;18.51;46.69;101202.44;4967402;28;20479;-73
2024/03/13 00:50:19;;;;;;;4.88;2.42;;;;;;;18.49;46.55;101194.66;4966905;28;20487;-74
2024/03/13 00:52:46;;;;;;;4.32;2.03;;;;;;;18.54;46.78;101208.31;4966568;28;20383;-74
2024/03/13 00:55:11;;;;;;;4.00;2.20;;;;;;;18.48;46.83;101198.22;4967282;28;20027;-73
2024/03/13 00:57:41;;;;;;;4.20;2.50;;;;;;;18.51;46.61;101208.56;4967306;28;20034;-75
2024/03/13 01:00:09;;;;;;;4.57;2.00;;;;;;;18.44;46.39;101199.44;4967062;28;20023;-75
2024/03/13 01:02:34;;;;;;;4.43;2.40;;;;;;;18.47;46.64;101207.13;4966022;28;20090;-74
2024/03/13 01:05:00;;;;;;;5.03;2.35;;;;;;;18.49;46.70;101213.13;4966877;28;20035;-74
2024/03/13 01:07:25;;;;;;;4.85;2.60;;;;;;;18.35;46.87;101182.50;4970379;28;20134;-74
2024/03/13 01:09:50;;;;;;;4.40;2.45;;;;;;;18.37;47.17;101195.59;4970491;28;20034;-73
2024/03/13 01:12:19;;;;;;;4.00;2.50;;;;;;;18.45;46.80;101201.97;4968858;28;20470;-73
2024/03/13 01:14:45;;;;;;;4.53;2.40;;;;;;;18.35;46.77;101179.88;4970306;28;20042;-74
2024/03/13 01:26:37;;;;;;;4.22;2.40;;;;;;;18.30;46.77;101182.84;4969813;28;20138;-73
2024/03/13 01:29:02;;;;;;;3.90;2.35;;;;;;;18.40;46.99;101193.53;4970475;28;20137;-72
2024/03/13 01:31:28;;;;;;;5.40;2.78;;;;;;;18.28;46.75;101176.88;4970029;28;20432;-73
2024/03/13 01:33:55;;;;;;;4.00;2.45;;;;;;;18.36;46.88;101193.88;4968854;28;20360;-73
2024/03/13 01:37:55;;;;;;;4.82;2.70;;;;;;;18.30;47.17;101184.66;4970170;28;20027;-73
2024/03/13 01:39:06;;;;;;;4.78;2.72;;;;;;;18.27;47.09;101183.09;4970031;28;20073;-74
2024/03/13 01:55:24;;;;;;;4.80;2.53;;;;;;;18.23;47.29;101179.03;4970176;28;20034;-74
2024/03/13 01:57:56;;;;;;;4.15;2.47;;;;;;;18.33;47.39;101199.44;4970181;28;20031;-74
2024/03/13 02:03:11;;;;;;;4.20;2.30;;;;;;;18.33;47.34;101202.06;4968981;28;20046;-74
2024/03/13 02:05:42;;;;;;;3.80;2.10;;;;;;;18.31;47.20;101196.91;4970129;28;20174;-73
2024/03/13 02:08:09;;;;;;;3.80;2.05;;;;;;;18.28;47.07;101205.06;4970053;28;20063;-74
2024/03/13 02:10:35;;;;;;;3.30;1.92;;;;;;;18.35;47.49;101208.06;4969642;28;20027;-74
2024/03/13 02:13:10;;;;;;;3.53;1.83;;;;;;;18.34;47.39;101209.88;4969222;28;20398;-74
2024/03/13 02:15:36;;;;;;;3.40;2.03;;;;;;;18.20;47.41;101187.16;4969737;28;20121;-73
2024/03/13 02:18:01;;;;;;;3.75;2.03;;;;;;;18.21;47.51;101190.63;4969036;28;20027;-73
2024/03/13 02:20:28;;;;;;;3.65;2.03;;;;;;;18.27;47.48;101188.38;4969637;28;20019;-73
2024/03/13 02:23:02;;;;;;;4.00;2.13;;;;;;;18.27;47.59;101195.44;4969966;28;20022;-72
2024/03/13 02:25:28;;;;;;;3.45;1.95;;;;;;;18.28;47.57;101200.59;4967240;28;20043;-73
2024/03/13 02:27:54;;;;;;;3.45;1.65;;;;;;;18.28;47.66;101205.06;4969236;28;20109;-74
2024/03/13 02:30:19;;;;;;;3.40;1.80;;;;;;;18.25;47.64;101198.19;4968688;28;20070;-73
2024/03/13 02:32:48;;;;;;;4.68;1.75;;;;;;;18.26;47.80;101199.03;4969051;28;20034;-74
2024/03/13 02:35:14;;;;;;;3.60;2.00;;;;;;;18.28;47.75;101202.41;4969093;28;20023;-73
2024/03/13 02:37:41;;;;;;;3.97;1.75;;;;;;;18.25;48.01;101202.66;4968544;28;20436;-74
2024/03/13 02:40:07;;;;;;;3.40;1.90;;;;;;;18.26;47.79;101196.41;4967434;28;20039;-72
2024/03/13 02:42:33;;;;;;;4.22;2.00;;;;;;;18.24;47.75;101201.78;4969150;28;20035;-73
2024/03/13 02:44:59;;;;;;;3.25;1.90;;;;;;;18.25;47.71;101200.84;4968489;28;20459;-74
2024/03/13 02:47:25;;;;;;;4.68;2.10;;;;;;;18.27;47.86;101206.84;4968801;28;20027;-73
2024/03/13 02:49:50;;;;;;;4.30;2.08;;;;;;;18.12;47.88;101187.75;4969173;28;20357;-74
2024/03/13 02:52:15;;;;;;;3.42;2.00;;;;;;;18.15;47.64;101191.97;4968876;28;20033;-74
2024/03/13 02:54:41;;;;;;;3.67;2.08;;;;;;;18.18;47.82;101193.50;4968974;28;20038;-74
2024/03/13 02:57:06;;;;;;;3.53;1.80;;;;;;;18.21;47.63;101198.56;4969090;28;20077;-74
2024/03/13 02:59:32;;;;;;;3.35;1.92;;;;;;;18.14;47.83;101190.28;4969078;28;20037;-75
2024/03/13 03:01:57;;;;;;;3.95;2.20;;;;;;;18.13;48.03;101188.56;4968126;28;20074;-74
2024/03/13 03:04:22;;;;;;;3.50;2.00;;;;;;;18.08;47.89;101182.81;4969038;28;20673;-74
2024/03/13 03:06:48;;;;;;;3.17;1.67;;;;;;;18.22;47.90;101214.25;4968638;28;20026;-74
2024/03/13 03:09:13;;;;;;;3.43;2.00;;;;;;;18.13;47.93;101197.34;4968711;28;20057;-75
2024/03/13 03:11:38;;;;;;;3.53;1.75;;;;;;;18.23;47.83;101215.97;4968674;28;20272;-73
2024/03/13 03:14:05;;;;;;;4.13;1.90;;;;;;;18.12;47.97;101194.81;4968819;28;20080;-75
2024/03/13 03:16:30;;;;;;;4.97;2.17;;;;;;;18.22;47.96;101213.44;4968522;28;20035;-74
2024/03/13 03:18:55;;;;;;;2.88;1.70;;;;;;;18.21;48.04;101217.03;4968702;28;20391;-73
2024/03/13 03:21:22;;;;;;;3.17;1.83;;;;;;;18.08;48.49;101194.19;4968601;28;20039;-74
2024/03/13 03:23:48;;;;;;;3.42;2.03;;;;;;;18.11;48.07;101195.78;4968756;28;20785;-73
2024/03/13 03:26:20;;;;;;;4.35;2.25;;;;;;;18.23;47.99;101225.66;4968423;28;20129;-73
2024/03/13 03:28:45;;;;;;;3.40;1.90;;;;;;;18.11;48.20;101207.16;4967739;28;20137;-73
2024/03/13 03:31:10;;;;;;;3.78;1.90;;;;;;;18.09;48.14;101203.81;4967904;28;20468;-73
2024/03/13 03:33:37;;;;;;;3.45;2.15;;;;;;;18.06;48.30;101201.41;4968434;28;20082;-73
2024/03/13 03:36:05;;;;;;;4.03;2.08;;;;;;;18.17;48.14;101221.69;4968141;28;20118;-73
2024/03/13 03:38:32;;;;;;;3.80;2.22;;;;;;;18.15;48.24;101220.13;4968294;28;20131;-75
2024/03/13 03:40:57;;;;;;;4.00;1.80;;;;;;;18.04;48.03;101207.72;4968104;28;20718;-74
2024/03/13 03:43:23;;;;;;;3.42;1.98;;;;;;;18.07;48.09;101213.63;4968188;28;20106;-74
2024/03/13 03:45:49;;;;;;;3.58;2.08;;;;;;;18.05;48.24;101207.63;4968124;28;20061;-74
2024/03/13 03:48:15;;;;;;;3.65;2.00;;;;;;;18.12;48.30;101232.59;4967976;28;20379;-75
2024/03/13 03:50:41;;;;;;;3.42;2.10;;;;;;;18.13;48.27;101231.66;4968049;28;20030;-73
2024/03/13 03:53:06;;;;;;;3.50;1.95;;;;;;;18.03;48.10;101212.16;4968278;28;20031;-74
2024/03/13 03:55:31;;;;;;;3.58;1.95;;;;;;;18.14;48.22;101232.47;4968052;28;20115;-75
2024/03/13 03:57:57;;;;;;;3.65;1.98;;;;;;;18.08;48.17;101223.22;4967986;28;21224;-74
2024/03/13 04:00:22;;;;;;;3.70;2.10;;;;;;;18.13;48.24;101230.78;4967840;28;20386;-75
2024/03/13 04:02:47;;;;;;;3.53;1.90;;;;;;;18.06;48.17;101222.50;4966951;28;20039;-73
2024/03/13 04:05:13;;;;;;;3.75;2.10;;;;;;;18.14;48.16;101232.47;4967903;28;20077;-74
2024/03/13 04:07:38;;;;;;;3.97;2.05;;;;;;;18.13;48.17;101234.28;4967861;28;20034;-74
2024/03/13 04:10:05;;;;;;;3.50;1.92;;;;;;;18.14;48.17;101232.47;4967096;28;20066;-74
2024/03/13 04:12:31;;;;;;;4.70;2.05;;;;;;;18.05;48.44;101226.06;4967657;28;20035;-74
2024/03/13 04:14:56;;;;;;;3.92;2.22;;;;;;;18.11;48.35;101236.16;4967908;28;20031;-73
2024/03/13 04:17:23;;;;;;;4.60;2.20;;;;;;;18.11;48.31;101235.34;4967808;28;20363;-73
2024/03/13 04:19:49;;;;;;;3.95;2.22;;;;;;;18.11;48.35;101238.81;4967942;28;20110;-74
2024/03/13 04:22:14;;;;;;;4.13;2.00;;;;;;;18.01;48.35;101218.50;4967772;28;20431;-74
2024/03/13 04:24:40;;;;;;;4.28;2.30;;;;;;;18.04;48.33;101226.19;4967735;28;20038;-73
2024/03/13 04:27:05;;;;;;;4.40;2.20;;;;;;;18.08;48.47;101233.75;4967888;28;20039;-73
2024/03/13 04:29:31;;;;;;;4.10;2.50;;;;;;;18.00;48.29;101222.94;4967720;28;20034;-74
2024/03/13 04:31:57;;;;;;;3.72;2.53;;;;;;;18.03;48.39;101235.06;4967801;28;20105;-74
2024/03/13 04:34:23;;;;;;;4.20;2.67;;;;;;;18.03;48.23;101235.06;4967777;28;20404;-73
2024/03/13 04:36:48;;;;;;;4.20;2.70;;;;;;;18.10;48.34;101238.91;4967555;28;20026;-75
2024/03/13 04:39:15;;;;;;;4.22;2.60;;;;;;;18.12;48.34;101250.22;4967391;28;20022;-74
2024/03/13 04:41:41;;;;;;;4.22;2.45;;;;;;;18.00;48.34;101241.41;4969874;28;20038;-74
2024/03/13 04:44:09;;;;;;;4.85;2.70;;;;;;;18.00;48.34;101232.66;4971374;28;20038;-74
2024/03/13 04:46:35;;;;;;;4.85;2.83;;;;;;;18.00;48.39;101238.78;4971374;28;20371;-73
2024/03/13 04:49:00;;;;;;;5.13;2.60;;;;;;;18.11;48.59;101265.19;4969686;28;20031;-74
2024/03/13 04:51:26;;;;;;;4.50;2.60;;;;;;;18.09;48.21;101258.38;4969802;28;20090;-74
2024/03/13 04:53:52;;;;;;;4.50;2.60;;;;;;;18.07;48.59;101258.47;4971226;28;20027;-75
2024/03/13 04:56:17;;;;;;;4.95;2.70;;;;;;;18.00;48.36;101240.56;4971189;28;20026;-73
2024/03/13 04:58:44;;;;;;;4.53;2.90;;;;;;;17.98;48.29;101248.59;4971014;28;20030;-74
2024/03/13 05:01:16;;;;;;;5.57;2.65;;;;;;;18.06;48.65;101259.41;4970861;28;20133;-74
2024/03/13 05:03:42;;;;;;;4.78;2.67;;;;;;;18.07;48.50;101257.63;4970005;28;20041;-73
2024/03/13 05:06:07;;;;;;;5.70;2.65;;;;;;;18.06;48.50;101264.69;4970979;28;20039;-74
2024/03/13 05:08:32;;;;;;;4.82;2.67;;;;;;;18.04;48.61;101261.34;4971005;28;20030;-73
2024/03/13 05:10:58;;;;;;;4.63;2.75;;;;;;;17.95;48.60;101251.47;4971187;28;20030;-75
2024/03/13 05:13:23;;;;;;;4.38;2.70;;;;;;;18.10;48.64;101270.56;4970690;28;20030;-73
2024/03/13 05:15:48;;;;;;;4.95;3.10;;;;;;;17.97;48.55;101259.25;4970865;28;20038;-74
2024/03/13 05:18:14;;;;;;;5.20;3.03;;;;;;;17.97;48.54;101261.91;4970872;28;20035;-73
2024/03/13 05:20:39;;;;;;;4.63;2.83;;;;;;;18.08;48.65;101286.50;4970646;28;20320;-73
2024/03/13 05:23:06;;;;;;;5.25;3.22;;;;;;;17.95;48.46;101262.00;4970460;28;20187;-73
2024/03/13 05:25:32;;;;;;;4.45;2.65;;;;;;;17.98;48.54;101268.88;4970163;28;20055;-73
2024/03/13 05:27:57;;;;;;;6.57;2.83;;;;;;;17.92;48.40;101259.59;4970344;28;20027;-74
2024/03/13 05:30:23;;;;;;;4.72;3.10;;;;;;;18.01;48.58;101279.16;4970299;28;20107;-74
2024/03/13 05:32:49;;;;;;;4.72;2.70;;;;;;;18.06;48.56;101287.59;4969311;28;20366;-75
2024/03/13 05:35:14;;;;;;;4.65;2.85;;;;;;;17.96;48.54;101282.16;4968927;28;20089;-73
2024/03/13 05:37:40;;;;;;;4.60;2.90;;;;;;;17.93;48.60;101277.13;4969996;28;20019;-75
2024/03/13 05:40:12;;;;;;;5.03;3.08;;;;;;;17.89;48.58;101265.09;4970080;28;20041;-74
2024/03/13 05:42:39;;;;;;;4.72;3.15;;;;;;;17.92;48.69;101272.78;4969946;28;20035;-73
2024/03/13 05:45:06;;;;;;;5.00;2.97;;;;;;;17.97;48.79;101285.63;4970384;28;20027;-75
2024/03/13 05:47:31;;;;;;;6.68;3.30;;;;;;;17.99;48.49;101287.22;4970140;28;20031;-75
2024/03/13 05:49:57;;;;;;;4.35;2.65;;;;;;;18.01;48.60;101297.63;4969669;28;20505;-73
2024/03/13 05:52:22;;;;;;;5.05;3.40;;;;;;;17.96;48.56;101292.72;4968749;28;20062;-74
2024/03/13 05:54:47;;;;;;;4.45;3.03;;;;;;;18.04;48.49;101300.91;4968816;28;20475;-72
2024/03/13 05:57:13;;;;;;;5.50;3.35;;;;;;;17.92;48.66;101275.41;4970509;28;20081;-73
2024/03/13 05:59:38;;;;;;;5.40;3.50;;;;;;;18.03;48.62;101301.84;4970041;28;20064;-73
2024/03/13 06:02:05;;;;;;;5.00;3.22;;;;;;;17.88;48.70;101274.81;4969160;28;20298;-73
2024/03/13 06:04:30;;;;;;;6.13;3.50;;;;;;;17.89;48.66;101280.91;4970133;28;20026;-73
2024/03/13 06:06:56;;;;;;;6.07;3.40;;;;;;;18.00;48.60;101298.59;4969625;28;20052;-73
2024/03/13 06:09:22;;;;;;;5.45;3.40;;;;;;;17.90;48.70;101285.25;4970022;28;20402;-71
2024/03/13 06:11:48;;;;;;;5.43;3.30;;;;;;;17.89;48.45;101292.31;4969498;28;20034;-73
2024/03/13 06:14:13;;;;;;;4.45;2.80;;;;;;;17.88;48.44;101295.91;4969537;28;20038;-73
2024/03/13 06:16:38;;;;;;;4.57;2.90;;;;;;;18.00;48.45;101311.78;4969741;28;20038;-72
2024/03/13 06:19:04;;;;;;;4.32;2.80;;;;;;;18.02;48.33;101315.13;4969689;28;20042;-73
2024/03/13 06:21:30;;;;;;;4.60;2.75;;;;;;;18.05;48.10;101317.56;4969377;28;20047;-73
2024/03/13 06:24:00;;;;;;;4.55;2.78;;;;;;;17.93;47.98;101299.03;4969797;28;20566;-72
2024/03/13 06:26:26;;;;;;;4.20;2.58;;;;;;;18.00;48.35;101304.69;4970130;28;20054;-73
2024/03/13 06:31:42;;;;;;;4.40;2.60;;;;;;;18.04;48.33;101313.22;4969937;28;20402;-75
2024/03/13 06:34:08;;;;;;;4.18;2.53;;;;;;;17.98;48.46;101301.34;4969946;28;20483;-70
2024/03/13 06:36:37;;;;;;;3.47;2.05;;;;;;;18.00;48.45;101298.59;4968892;28;20382;-74
2024/03/13 06:39:06;;;;;;;5.07;2.60;;;;;;;18.02;48.48;101296.69;4969891;28;20086;-73
2024/03/13 06:41:32;;;;;;;3.35;1.98;;;;;;;18.06;48.38;101304.25;4969751;28;20019;-71
2024/03/13 06:43:57;;;;;;;4.25;2.75;;;;;;;18.19;48.33;101324.47;4969555;28;20084;-72
2024/03/13 06:46:24;;;;;;;4.93;2.70;;;;;;;18.13;48.86;101313.41;4969763;28;20050;-72
2024/03/13 06:48:50;;;;;;;4.65;2.40;;;;;;;18.21;48.50;101315.47;4969738;28;20435;-73
2024/03/13 06:51:15;;;;;;;4.43;2.25;;;;;;;18.27;48.59;101324.72;4969972;28;20174;-73
2024/03/13 06:53:41;;;;;;;4.75;2.40;;;;;;;18.20;48.48;101315.56;4969323;28;20081;-74
2024/03/13 06:56:07;;;;;;;4.50;2.45;;;;;;;18.33;48.71;101337.47;4970095;28;20367;-72
2024/03/13 06:58:32;;;;;;;4.35;2.47;;;;;;;18.30;48.68;101335.06;4969054;28;20041;-71
2024/03/13 07:00:58;;;;;;;4.70;2.55;;;;;;;18.26;48.52;101320.41;4969805;28;20039;-72
2024/03/13 07:03:24;;;;;;;4.00;2.42;;;;;;;18.40;48.41;101340.50;4968701;28;20038;-73
2024/03/13 07:05:52;;;;;;;4.63;2.72;;;;;;;18.37;48.21;101336.25;4969856;28;20023;-73
2024/03/13 07:08:18;;;;;;;4.40;2.80;;;;;;;18.29;48.44;101326.31;4969712;28;20082;-72
2024/03/13 07:10:44;;;;;;;5.28;2.85;;;;;;;18.39;48.32;101342.28;4970113;28;20027;-70
2024/03/13 07:13:09;;;;;;;4.88;3.00;;;;;;;18.34;48.25;101330.38;4970089;28;20049;-73
2024/03/13 07:15:35;;;;;;;5.00;2.80;;;;;;;18.34;48.45;101336.53;4970363;28;20491;-73
2024/03/13 07:18:03;;;;;;;5.55;3.60;;;;;;;18.42;48.34;101346.47;4970304;28;20130;-71
2024/03/13 07:20:28;;;;;;;6.18;3.17;;;;;;;18.39;48.45;101337.00;4970017;28;20121;-72
2024/03/13 07:22:54;;;;;;;5.40;3.20;;;;;;;18.42;48.34;101346.47;4969605;28;20109;-72
2024/03/13 07:25:20;;;;;;;4.88;2.95;;;;;;;18.37;48.31;101330.16;4969547;28;20035;-72
2024/03/13 07:27:45;;;;;;;5.45;3.42;;;;;;;18.41;48.27;101328.97;4970353;28;20050;-73
2024/03/13 07:30:10;;;;;;;4.95;3.08;;;;;;;18.38;48.35;101330.03;4969459;28;20345;-72
2024/03/13 07:32:36;;;;;;;5.25;3.30;;;;;;;18.33;48.45;101313.72;4970892;28;20030;-72
2024/03/13 07:35:03;;;;;;;5.70;3.65;;;;;;;18.31;48.71;101321.75;4970133;28;20058;-73
2024/03/13 07:37:29;;;;;;;5.47;3.03;;;;;;;18.40;48.20;101336.03;4970329;28;20031;-73
2024/03/13 07:39:55;;;;;;;5.90;3.22;;;;;;;18.39;48.34;101334.38;4970069;28;20126;-72
2024/03/13 07:42:20;;;;;;;6.10;3.75;;;;;;;18.35;48.11;101330.28;4969669;28;20074;-71
2024/03/13 07:44:46;;;;;;;6.35;3.38;;;;;;;18.30;48.30;101321.88;4969472;28;20486;-74
2024/03/13 07:47:11;;;;;;;5.60;3.33;;;;;;;18.28;48.29;101327.25;4969478;28;20552;-72
2024/03/13 07:49:37;;;;;;;5.70;3.45;;;;;;;18.36;48.15;101347.81;4969858;28;20030;-75
2024/03/13 07:52:03;;;;;;;5.65;3.38;;;;;;;18.39;48.27;101354.63;4971540;28;20054;-72
2024/03/13 07:54:29;;;;;;;6.30;3.30;;;;;;;18.42;48.29;101365.81;4972394;28;20022;-74
2024/03/13 07:56:54;;;;;;;7.30;3.80;;;;;;;18.29;48.37;101339.50;4973172;28;20023;-73
2024/03/13 07:59:25;;;;;;;8.50;4.05;;;;;;;18.29;48.36;101350.06;4973769;28;20037;-73
2024/03/13 08:01:50;;;;;;;6.85;3.83;;;;;;;18.40;48.36;101372.97;4973306;28;20042;-73
2024/03/13 08:04:15;;;;;;;6.20;3.70;;;;;;;18.39;48.48;101376.59;4972234;28;20038;-72
2024/03/13 08:06:40;;;;;;;7.75;3.92;;;;;;;18.44;48.50;101392.09;4972857;28;20122;-73
2024/03/13 08:09:06;;;;;;;5.70;3.73;;;;;;;18.39;48.72;101384.53;4972636;28;20058;-73
2024/03/13 08:11:33;;;;;;;5.75;3.55;;;;;;;18.39;48.75;101387.16;4972943;28;20275;-72
2024/03/13 08:14:01;;;;;;;5.75;3.67;;;;;;;18.27;48.95;101370.41;4972464;28;20097;-71
2024/03/13 08:16:26;;;;;;;5.97;3.80;;;;;;;18.40;49.29;101388.81;4969609;28;20035;-72
2024/03/13 08:18:52;;;;;;;5.95;3.90;;;;;;;18.42;49.09;101386.94;4967684;28;20532;-73
2024/03/13 08:21:17;;;;;;;6.30;3.63;;;;;;;18.44;49.33;101397.38;4967720;28;20044;-74
2024/03/13 08:23:44;;;;;;;7.85;4.15;;;;;;;18.45;49.38;101393.75;4967709;28;20126;-73
2024/03/13 08:26:12;;;;;;;6.57;3.53;;;;;;;18.48;49.61;101397.03;4967575;28;20093;-72
2024/03/13 08:28:39;;;;;;;5.75;3.53;;;;;;;18.46;49.92;101391.00;4967675;28;20031;-72
2024/03/13 08:31:05;;;;;;;5.18;3.15;;;;;;;18.43;49.70;101393.88;4967869;28;20035;-73
2024/03/13 08:33:31;;;;;;;6.00;3.42;;;;;;;18.41;49.81;101379.97;4967861;28;20026;-73
2024/03/13 08:35:57;;;;;;;6.20;3.42;;;;;;;18.48;49.87;101399.69;4967484;28;20042;-72
2024/03/13 08:38:22;;;;;;;6.75;3.97;;;;;;;18.47;49.91;101390.06;4967845;28;20482;-72
2024/03/13 08:40:48;;;;;;;7.00;3.97;;;;;;;18.47;49.86;101399.78;4967678;28;20067;-72
2024/03/13 08:43:18;;;;;;;5.75;3.50;;;;;;;18.52;49.95;101409.97;4967175;28;20090;-73
2024/03/13 08:45:44;;;;;;;6.60;4.47;;;;;;;18.50;50.24;101410.13;4967965;28;20079;-72
2024/03/13 08:48:11;;;;;;;6.68;3.67;;;;;;;18.43;50.13;101398.31;4967612;28;20023;-72
2024/03/13 08:50:36;;;;;;;5.90;4.00;;;;;;;18.38;50.04;101396.03;4967843;28;20030;-72
2024/03/13 08:53:02;;;;;;;7.80;3.63;;;;;;;18.47;49.99;101413.00;4967541;28;20018;-72
2024/03/13 08:55:27;;;;;;;8.05;3.78;;;;;;;18.51;50.11;101424.16;4967519;28;20022;-75
2024/03/13 08:57:54;;;;;;;6.68;3.70;;;;;;;18.50;50.30;101418.03;4965953;28;20448;-72
2024/03/13 09:00:20;;;;;;;6.45;3.92;;;;;;;18.38;50.19;101403.94;4965598;28;20155;-72
2024/03/13 09:02:46;;;;;;;5.60;3.60;;;;;;;18.53;50.10;101430.16;4966144;28;20768;-73
2024/03/13 09:05:11;;;;;;;6.53;3.72;;;;;;;18.41;50.26;101409.00;4964594;28;20041;-72
2024/03/13 09:07:40;;;;;;;6.82;4.03;;;;;;;18.43;50.08;101411.50;4964876;28;20030;-74
2024/03/13 09:10:05;;;;;;;6.97;4.00;;;;;;;18.45;50.28;101407.81;4968406;28;20737;-73
2024/03/13 09:12:31;;;;;;;8.25;4.25;;;;;;;18.58;50.18;101422.72;4966491;28;20039;-73
2024/03/13 09:14:56;;;;;;;7.40;3.90;;;;;;;18.48;49.98;101410.25;4966855;28;20035;-73
2024/03/13 09:17:22;;;;;;;8.40;4.32;;;;;;;18.51;50.23;101413.59;4966438;28;20384;-74
2024/03/13 09:19:49;;;;;;;7.70;4.20;;;;;;;18.51;50.49;101413.59;4967116;28;20031;-73
2024/03/13 09:22:17;;;;;;;6.85;4.18;;;;;;;18.60;50.46;101426.94;4967279;28;20031;-72
2024/03/13 09:24:43;;;;;;;6.90;4.10;;;;;;;18.61;50.33;101428.66;4967153;28;20038;-74
2024/03/13 09:27:08;;;;;;;8.57;4.13;;;;;;;18.58;50.50;101428.00;4966129;28;20400;-73
2024/03/13 09:29:37;;;;;;;6.35;3.80;;;;;;;18.52;50.24;101421.41;4969918;28;20037;-72
2024/03/13 09:32:02;;;;;;;6.22;3.75;;;;;;;18.50;50.68;101407.47;4970042;28;20173;-74
2024/03/13 09:34:29;;;;;;;11.02;4.72;;;;;;;18.43;50.58;101401.78;4970225;28;20043;-74
2024/03/13 09:36:55;;;;;;;6.25;4.20;;;;;;;18.56;50.14;101432.56;4969666;28;20054;-75
2024/03/13 09:39:21;;;;;;;7.55;4.15;;;;;;;18.57;49.98;101434.25;4969606;28;20026;-74
2024/03/13 09:41:47;;;;;;;6.68;4.18;;;;;;;18.50;50.26;101425.97;4969371;28;20033;-76
2024/03/13 09:44:15;;;;;;;8.20;4.32;;;;;;;18.55;49.98;101442.28;4969900;28;20101;-75
2024/03/13 09:46:44;;;;;;;6.38;4.03;;;;;;;18.44;50.17;101431.69;4970026;28;20025;-73
2024/03/13 09:49:10;;;;;;;8.38;4.90;;;;;;;18.52;50.24;101445.16;4969946;28;20026;-74
2024/03/13 09:51:36;;;;;;;6.55;4.10;;;;;;;18.52;50.23;101447.78;4968960;28;20038;-75
2024/03/13 09:54:03;;;;;;;7.57;3.88;;;;;;;18.40;50.15;101425.75;4969571;28;20023;-75
2024/03/13 09:56:29;;;;;;;6.65;3.90;;;;;;;18.51;50.23;101445.25;4969566;28;20125;-74
2024/03/13 09:58:56;;;;;;;7.35;3.85;;;;;;;18.40;50.09;101430.22;4969636;28;20035;-74
2024/03/13 10:01:35;;;;;;;6.43;3.95;;;;;;;18.51;49.84;101450.53;4968503;28;20064;-75
2024/03/13 10:04:10;;;;;;;8.15;3.75;;;;;;;18.41;50.08;101432.75;4969092;28;20030;-74
2024/03/13 10:06:39;;;;;;;6.70;3.85;;;;;;;18.48;49.95;101443.69;4969445;28;20023;-75
2024/03/13 10:09:12;;;;;;;6.78;3.70;;;;;;;18.52;50.13;101457.50;4969353;28;20089;-74
2024/03/13 10:11:44;;;;;;;6.10;3.72;;;;;;;18.51;49.95;101458.47;4969843;28;20030;-74
2024/03/13 10:14:11;;;;;;;8.05;3.92;;;;;;;18.48;49.99;101446.31;4969450;28;20031;-74
2024/03/13 10:16:42;;;;;;;6.82;4.05;;;;;;;18.36;49.86;101434.00;4969388;28;20467;-75
2024/03/13 10:19:12;;;;;;;6.47;3.60;;;;;;;18.46;49.92;101442.97;4969418;28;20482;-75
2024/03/13 10:21:40;;;;;;;6.15;3.97;;;;;;;18.40;49.92;101446.03;4967907;28;20050;-74
2024/03/13 10:24:08;;;;;;;5.97;3.53;;;;;;;18.34;49.70;101442.06;4969176;28;20460;-74
2024/03/13 10:26:38;;;;;;;5.35;3.20;;;;;;;18.45;49.88;101465.03;4969013;28;20055;-73
2024/03/13 10:29:08;;;;;;;6.10;3.47;;;;;;;18.48;49.98;101467.44;4967825;28;20472;-75
2024/03/13 10:31:35;;;;;;;5.95;3.40;;;;;;;18.41;49.81;101459.13;4968901;28;20463;-74
2024/03/13 10:34:00;;;;;;;6.45;3.60;;;;;;;18.49;49.89;101471.78;4968939;28;20026;-74
2024/03/13 10:36:26;;;;;;;5.90;3.30;;;;;;;18.35;49.90;101450.81;4969077;28;20030;-75
2024/03/13 10:38:53;;;;;;;6.80;3.25;;;;;;;18.46;49.83;101475.47;4968474;28;20023;-76
2024/03/13 10:41:19;;;;;;;6.32;3.28;;;;;;;18.38;49.85;101455.88;4968924;28;20045;-73
2024/03/13 10:43:46;;;;;;;6.72;3.65;;;;;;;18.37;49.82;101456.81;4969070;28;20062;-75
2024/03/13 10:46:11;;;;;;;6.18;3.50;;;;;;;18.37;49.85;101454.19;4969319;28;20031;-74
2024/03/13 10:48:38;;;;;;;5.50;3.35;;;;;;;18.43;49.87;101462.50;4969271;28;20044;-75
2024/03/13 10:51:04;;;;;;;7.03;3.55;;;;;;;18.48;49.75;101476.22;4969181;28;20042;-73
2024/03/13 10:53:32;;;;;;;5.50;3.40;;;;;;;18.38;49.75;101456.72;4969116;28;20506;-74
2024/03/13 10:55:57;;;;;;;5.88;3.70;;;;;;;18.44;49.92;101464.19;4969114;28;20069;-73
2024/03/13 10:58:23;;;;;;;5.40;3.15;;;;;;;18.39;49.84;101461.03;4968894;28;20108;-76
2024/03/13 11:00:54;;;;;;;5.57;3.10;;;;;;;18.43;49.87;101465.13;4968978;28;20030;-74
2024/03/13 11:03:19;;;;;;;5.38;3.08;;;;;;;18.37;49.88;101457.66;4967766;28;20035;-73
2024/03/13 11:05:46;;;;;;;5.25;3.30;;;;;;;18.33;49.80;101450.09;4968403;28;20033;-74
2024/03/13 11:08:11;;;;;;;6.18;3.33;;;;;;;18.42;49.83;101467.88;4968854;28;20158;-75
2024/03/13 11:10:37;;;;;;;5.15;3.50;;;;;;;18.38;49.85;101459.34;4967285;28;20121;-75
2024/03/13 11:13:06;;;;;;;5.50;3.20;;;;;;;18.42;49.78;101466.09;4968776;28;20049;-74
2024/03/13 11:15:37;;;;;;;6.75;3.88;;;;;;;18.43;49.86;101467.78;4967997;28;20501;-74
2024/03/13 11:18:04;;;;;;;5.10;3.13;;;;;;;18.43;49.78;101459.84;4968173;28;20026;-73
2024/03/13 11:20:37;;;;;;;6.97;3.05;;;;;;;18.35;49.88;101456.94;4967867;28;20379;-75
2024/03/13 11:23:21;;;;;;;6.78;3.30;;;;;;;18.44;49.91;101466.00;4968048;28;20025;-75
2024/03/13 11:25:50;;;;;;;4.88;2.60;;;;;;;18.40;49.80;101462.72;4966595;28;20116;-73
2024/03/13 11:28:27;;;;;;;5.25;2.90;;;;;;;18.42;49.76;101462.59;4968346;28;20042;-73
2024/03/13 11:30:53;;;;;;;5.97;2.92;;;;;;;18.44;49.78;101464.19;4968260;28;20038;-73
2024/03/13 11:33:19;;;;;;;4.97;2.67;;;;;;;18.31;49.98;101455.50;4968449;28;20037;-73
2024/03/13 11:35:46;;;;;;;5.63;2.95;;;;;;;18.31;49.79;101450.22;4968268;28;20030;-75
2024/03/13 11:38:12;;;;;;;5.38;3.03;;;;;;;18.45;49.69;101476.44;4968488;28;20027;-74
2024/03/13 11:40:38;;;;;;;5.22;2.90;;;;;;;18.32;49.74;101454.50;4967845;28;20076;-73
2024/03/13 11:43:04;;;;;;;4.90;2.75;;;;;;;18.32;49.74;101459.78;4967186;28;20034;-75
2024/03/13 11:45:30;;;;;;;5.45;2.67;;;;;;;18.43;50.03;101469.56;4967064;28;20045;-74
2024/03/13 11:48:00;;;;;;;5.13;2.55;;;;;;;18.44;50.64;101466.00;4966522;28;20102;-74
2024/03/13 11:50:26;;;;;;;5.25;2.70;;;;;;;18.46;50.20;101472.00;4966953;28;20043;-75